Time;durP1;ratioP1;P1;durP2;ratioP2;P2;SDS_P1;SDS_P2;PMS_P1;PMS_P2;Temp;Humidity;BMP_temperature;BMP_pressure;BME280_temperature;BME280_humidity;BME280_pressure;Samples;Min_cycle;Max_cycle;Signal;HPM_P1;HPM_P2
2022/02/24 00:00:19;;;;;;;11.60;3.28;;;;;;;7.32;70.06;101514.03;5037565;28;20540;-72
2022/02/24 00:02:46;;;;;;;8.90;2.95;;;;;;;7.27;70.97;101500.81;5036740;28;20442;-72
2022/02/24 00:05:12;;;;;;;9.68;2.70;;;;;;;7.35;69.74;101516.31;5054508;28;20025;-73
2022/02/24 00:07:37;;;;;;;14.50;3.03;;;;;;;7.39;69.68;101503.03;5037979;28;20071;-71
2022/02/24 00:10:04;;;;;;;11.20;2.53;;;;;;;7.38;70.01;101503.16;5054768;28;20534;-71
2022/02/24 01:06:21;;;;;;;12.65;2.88;;;;;;;7.42;66.75;101428.16;5017919;28;20119;-71
2022/02/24 01:08:46;;;;;;;11.85;2.58;;;;;;;7.52;66.58;101422.88;5017373;28;20069;-71
2022/02/24 01:11:11;;;;;;;10.43;2.55;;;;;;;7.38;67.30;101426.00;5017158;28;20444;-70
2022/02/24 01:13:37;;;;;;;11.25;2.20;;;;;;;7.46;66.25;101423.50;5017232;28;20032;-71
2022/02/24 01:16:02;;;;;;;14.85;2.17;;;;;;;7.43;66.59;101416.09;5017269;28;20034;-71
2022/02/24 01:18:29;;;;;;;13.88;2.45;;;;;;;7.49;66.65;101412.91;5017157;28;20396;-71
2022/02/24 01:20:55;;;;;;;14.55;2.60;;;;;;;7.49;66.65;101404.38;5016212;28;20101;-71
2022/02/24 01:23:22;;;;;;;12.52;2.35;;;;;;;7.50;66.64;101414.50;5016191;28;20058;-71
2022/02/24 01:25:47;;;;;;;11.93;2.40;;;;;;;7.36;67.23;101400.44;5015885;28;20034;-71
2022/02/24 01:28:13;;;;;;;12.65;2.50;;;;;;;7.38;67.47;101395.16;5017097;28;20109;-71
2022/02/24 01:30:38;;;;;;;11.75;2.30;;;;;;;7.41;67.34;101395.66;5016874;28;20029;-71
2022/02/24 01:33:03;;;;;;;12.43;2.58;;;;;;;7.38;67.74;101388.25;5017044;28;20465;-71
2022/02/24 01:35:29;;;;;;;12.20;2.42;;;;;;;7.32;67.09;101367.47;5016870;28;20037;-71
2022/02/24 01:37:54;;;;;;;11.38;2.50;;;;;;;7.34;68.27;101381.78;5015492;28;20385;-72
2022/02/24 01:40:19;;;;;;;20.10;2.45;;;;;;;7.36;67.78;101376.50;5016710;28;20461;-72
2022/02/24 01:42:45;;;;;;;12.25;2.30;;;;;;;7.37;68.15;101375.56;5016555;28;20082;-72
2022/02/24 01:45:12;;;;;;;13.05;2.30;;;;;;;7.34;67.77;101365.56;5015510;28;20457;-71
2022/02/24 01:47:38;;;;;;;18.42;2.78;;;;;;;7.36;67.89;101368.78;5016709;28;20072;-70
2022/02/24 01:50:05;;;;;;;14.95;2.63;;;;;;;7.37;68.17;101366.06;5016526;28;20469;-70
2022/02/24 01:52:31;;;;;;;11.32;3.10;;;;;;;7.35;67.87;101359.47;5015361;28;20061;-71
2022/02/24 01:54:56;;;;;;;12.13;2.40;;;;;;;7.36;68.16;101350.78;5016345;28;20057;-71
2022/02/24 01:57:22;;;;;;;14.77;2.97;;;;;;;7.33;68.81;101353.66;5016564;28;20479;-72
2022/02/24 01:59:48;;;;;;;11.10;3.10;;;;;;;7.35;68.73;101349.97;5016432;28;20424;-71
2022/02/24 02:02:14;;;;;;;12.45;2.90;;;;;;;7.34;69.64;101345.00;5016535;28;20040;-71
2022/02/24 02:04:40;;;;;;;12.27;2.80;;;;;;;7.36;68.78;101337.91;5030706;28;20132;-71
2022/02/24 02:07:06;;;;;;;14.75;2.30;;;;;;;7.33;69.06;101336.47;5038044;28;20484;-72
2022/02/24 02:09:35;;;;;;;14.68;2.70;;;;;;;7.37;68.79;101340.34;5055824;28;20025;-70
2022/02/24 02:12:00;;;;;;;15.20;2.85;;;;;;;7.42;68.65;101325.28;5037896;28;20400;-71
2022/02/24 02:14:25;;;;;;;16.30;3.10;;;;;;;7.38;69.09;101328.31;5055777;28;20020;-70
2022/02/24 02:16:51;;;;;;;12.18;3.15;;;;;;;7.40;69.33;101321.25;5055651;28;20452;-70
2022/02/24 02:19:17;;;;;;;15.75;3.13;;;;;;;7.37;69.09;101324.13;5037615;28;20095;-71
2022/02/24 02:21:43;;;;;;;18.92;3.35;;;;;;;7.45;69.11;101309.53;5037832;28;20017;-71
2022/02/24 02:24:09;;;;;;;14.00;3.15;;;;;;;7.50;68.99;101319.34;5055581;28;20397;-70
2022/02/24 02:26:35;;;;;;;12.77;2.78;;;;;;;7.36;69.24;101314.78;5037561;28;20025;-70
2022/02/24 02:29:03;;;;;;;12.35;2.95;;;;;;;7.50;69.44;101311.63;5055537;28;20024;-70
2022/02/24 02:31:29;;;;;;;13.68;3.00;;;;;;;7.50;69.15;101309.06;5055210;28;20021;-70
2022/02/24 02:34:23;;;;;;;16.83;3.00;;;;;;;7.46;69.88;101297.50;5055366;28;20036;-70
2022/02/24 02:36:49;;;;;;;19.15;3.60;;;;;;;7.40;70.08;101298.09;5020565;28;20128;-71
2022/02/24 02:39:15;;;;;;;10.75;2.75;;;;;;;7.41;70.17;101297.94;5055204;28;20096;-70
2022/02/24 02:41:43;;;;;;;13.75;2.95;;;;;;;7.38;70.82;101294.88;5055299;28;20104;-70
2022/02/24 02:44:10;;;;;;;16.65;2.85;;;;;;;7.43;70.65;101274.66;5055095;28;20027;-71
2022/02/24 02:46:36;;;;;;;13.82;2.78;;;;;;;7.47;70.31;101287.03;5055136;28;20024;-71
2022/02/24 02:49:01;;;;;;;9.40;2.92;;;;;;;7.46;70.94;101288.00;5037178;28;20120;-71
2022/02/24 02:51:26;;;;;;;15.05;3.35;;;;;;;7.41;70.73;101289.41;5054947;28;20139;-71
2022/02/24 02:53:52;;;;;;;20.40;3.00;;;;;;;7.39;69.99;101279.31;5055049;28;20566;-71
2022/02/24 02:56:18;;;;;;;12.27;2.70;;;;;;;7.46;70.39;101271.78;5054804;28;20048;-71
2022/02/24 02:58:43;;;;;;;15.45;3.08;;;;;;;7.37;71.02;101272.69;5054812;28;20103;-72
2022/02/24 03:01:08;;;;;;;13.68;3.53;;;;;;;7.30;71.28;101264.78;5054879;28;20068;-71
2022/02/24 03:03:34;;;;;;;18.38;3.08;;;;;;;7.41;71.20;101254.22;5036799;28;20036;-71
2022/02/24 03:05:59;;;;;;;14.35;3.28;;;;;;;7.35;70.70;101254.84;5036741;28;20051;-71
2022/02/24 03:08:25;;;;;;;15.70;3.10;;;;;;;7.39;70.47;101256.16;5036872;28;20071;-71
2022/02/24 03:10:51;;;;;;;16.70;2.95;;;;;;;7.43;71.03;101241.22;5054712;28;20052;-71
2022/02/24 03:13:17;;;;;;;11.63;3.15;;;;;;;7.47;70.54;101234.78;5036714;28;20510;-71
2022/02/24 03:15:43;;;;;;;14.52;2.88;;;;;;;7.36;71.72;101238.44;5054560;28;20028;-71
2022/02/24 03:18:09;;;;;;;10.15;3.00;;;;;;;7.34;71.51;101230.09;5054523;28;20025;-71
2022/02/24 03:20:35;;;;;;;10.55;2.40;;;;;;;7.40;71.25;101213.25;5036577;28;20024;-71
2022/02/24 03:23:02;;;;;;;14.27;2.78;;;;;;;7.43;71.01;101210.38;5054286;28;20032;-71
2022/02/24 03:25:28;;;;;;;13.18;3.15;;;;;;;7.32;71.74;101203.72;5053807;28;20025;-71
2022/02/24 03:27:54;;;;;;;8.35;2.85;;;;;;;7.37;71.53;101205.84;5054365;28;20033;-71
2022/02/24 03:30:20;;;;;;;10.32;2.45;;;;;;;7.33;70.66;101192.47;5054180;28;20172;-70
2022/02/24 03:32:46;;;;;;;11.57;2.75;;;;;;;7.36;70.79;101201.66;5036581;28;20052;-70
2022/02/24 03:35:12;;;;;;;10.80;2.78;;;;;;;7.34;71.30;101201.03;5054268;28;20067;-70
2022/02/24 03:37:39;;;;;;;14.40;2.80;;;;;;;7.36;71.61;101192.16;5054310;28;20036;-70
2022/02/24 03:40:06;;;;;;;12.80;2.70;;;;;;;7.23;72.06;101182.31;5054149;28;20032;-70
2022/02/24 03:42:31;;;;;;;13.18;3.03;;;;;;;7.31;71.09;101184.13;5053921;28;20025;-70
2022/02/24 03:44:56;;;;;;;11.60;2.80;;;;;;;7.34;71.13;101177.88;5054107;28;20100;-70
2022/02/24 03:47:22;;;;;;;10.93;2.65;;;;;;;7.39;71.48;101181.59;5053946;28;20040;-70
2022/02/24 03:49:49;;;;;;;11.15;2.70;;;;;;;7.44;71.23;101183.69;5035941;28;20503;-70
2022/02/24 03:52:15;;;;;;;15.95;3.22;;;;;;;7.33;71.33;101171.91;5053884;28;20025;-70
2022/02/24 03:54:41;;;;;;;11.43;2.40;;;;;;;7.38;70.48;101174.81;5035901;28;20480;-70
2022/02/24 03:57:06;;;;;;;13.05;2.85;;;;;;;7.38;70.83;101174.03;5035963;28;20078;-71
2022/02/24 03:59:31;;;;;;;13.73;2.90;;;;;;;7.29;71.56;101162.09;5053692;28;20016;-71
2022/02/24 04:01:57;;;;;;;12.07;2.72;;;;;;;7.18;71.50;101138.28;5053607;28;20017;-71
2022/02/24 04:04:23;;;;;;;12.32;3.13;;;;;;;7.25;71.55;101153.91;5053474;28;20056;-71
2022/02/24 04:06:48;;;;;;;13.45;3.22;;;;;;;7.33;71.22;101161.63;5053525;28;20082;-71
2022/02/24 04:09:13;;;;;;;15.23;2.80;;;;;;;7.29;71.26;101159.53;5053447;28;20450;-71
2022/02/24 04:11:38;;;;;;;18.52;3.22;;;;;;;7.36;70.70;101155.38;5035656;28;20068;-71
2022/02/24 04:14:04;;;;;;;10.48;2.60;;;;;;;7.38;70.87;101153.44;5053402;28;20013;-71
2022/02/24 04:16:29;;;;;;;12.40;2.80;;;;;;;7.36;70.51;101157.94;5053374;28;20056;-71
2022/02/24 04:18:54;;;;;;;12.27;2.78;;;;;;;7.39;71.17;101152.47;5053342;28;20025;-71
2022/02/24 04:21:20;;;;;;;9.65;2.40;;;;;;;7.38;70.69;101158.59;5053280;28;20029;-72
2022/02/24 04:23:45;;;;;;;9.90;2.80;;;;;;;7.34;71.48;101163.25;5053295;28;20415;-71
2022/02/24 04:26:10;;;;;;;13.90;2.97;;;;;;;7.28;70.94;101150.19;5053270;28;20361;-71
2022/02/24 04:28:35;;;;;;;12.07;2.95;;;;;;;7.34;70.95;101160.69;5035299;28;20025;-71
2022/02/24 04:31:01;;;;;;;16.55;3.05;;;;;;;7.38;71.06;101145.75;5053112;28;20384;-71
2022/02/24 04:33:26;;;;;;;13.35;2.83;;;;;;;7.38;70.69;101143.16;5035216;28;20021;-71
2022/02/24 04:35:51;;;;;;;13.80;2.80;;;;;;;7.43;70.77;101146.88;5053124;28;20047;-71
2022/02/24 04:38:17;;;;;;;8.70;2.65;;;;;;;7.39;70.94;101130.16;5052212;28;20427;-71
2022/02/24 04:40:42;;;;;;;17.95;3.40;;;;;;;7.45;70.80;101139.00;5035180;28;20467;-71
2022/02/24 04:43:07;;;;;;;13.65;2.78;;;;;;;7.46;70.48;101135.47;5035483;28;20021;-71
2022/02/24 04:45:33;;;;;;;11.02;2.80;;;;;;;7.43;71.16;101144.31;5035309;28;20396;-71
2022/02/24 04:47:58;;;;;;;13.05;2.63;;;;;;;7.40;71.04;101143.81;5035250;28;20029;-71
2022/02/24 04:50:23;;;;;;;7.20;2.33;;;;;;;7.41;70.96;101141.09;5052937;28;20071;-71
2022/02/24 04:52:48;;;;;;;15.40;2.47;;;;;;;7.38;70.83;101131.13;5053157;28;20040;-71
2022/02/24 04:55:14;;;;;;;11.23;2.70;;;;;;;7.45;70.86;101118.41;5052851;28;20468;-71
2022/02/24 04:57:39;;;;;;;14.73;2.83;;;;;;;7.45;70.86;101121.00;5052890;28;20029;-71
2022/02/24 05:00:06;;;;;;;11.55;2.40;;;;;;;7.36;71.21;101122.75;5052801;28;20020;-71
2022/02/24 05:02:31;;;;;;;12.52;2.65;;;;;;;7.40;70.94;101130.97;5052652;28;20028;-70
2022/02/24 05:04:56;;;;;;;7.68;2.53;;;;;;;7.36;70.94;101109.88;5031489;28;20115;-71
2022/02/24 05:07:21;;;;;;;10.50;2.88;;;;;;;7.45;71.11;101114.09;5031553;28;20108;-71
2022/02/24 05:09:47;;;;;;;9.93;2.60;;;;;;;7.48;71.35;101105.28;5031562;28;20025;-71
2022/02/24 05:12:12;;;;;;;14.02;2.95;;;;;;;7.27;71.44;101090.28;5032846;28;20483;-71
2022/02/24 05:14:37;;;;;;;11.13;2.72;;;;;;;7.50;70.85;101102.53;5032831;28;20036;-71
2022/02/24 05:17:03;;;;;;;10.80;2.75;;;;;;;7.51;71.23;101106.69;5032717;28;20025;-71
2022/02/24 05:19:29;;;;;;;10.15;3.10;;;;;;;7.37;71.59;101085.81;5032787;28;20029;-70
2022/02/24 05:21:54;;;;;;;10.20;3.33;;;;;;;7.41;71.50;101099.13;5032801;28;20017;-70
2022/02/24 05:24:19;;;;;;;15.52;2.70;;;;;;;7.43;71.11;101087.75;5032888;28;20450;-70
2022/02/24 05:26:45;;;;;;;12.13;2.78;;;;;;;7.48;71.06;101092.41;5031538;28;20110;-71
2022/02/24 05:29:10;;;;;;;10.45;3.05;;;;;;;7.40;71.40;101075.19;5031574;28;20380;-71
2022/02/24 05:31:36;;;;;;;17.77;3.53;;;;;;;7.42;72.39;101083.56;5031427;28;20029;-70
2022/02/24 05:34:01;;;;;;;17.77;2.97;;;;;;;7.49;71.32;101080.34;5031461;28;20025;-71
2022/02/24 05:36:26;;;;;;;10.18;2.85;;;;;;;7.44;72.17;101060.25;5032716;28;20025;-71
2022/02/24 05:38:54;;;;;;;15.02;3.03;;;;;;;7.36;71.42;101053.31;5031435;28;20025;-70
2022/02/24 05:41:19;;;;;;;14.95;3.15;;;;;;;7.49;71.26;101057.22;5031479;28;20033;-70
2022/02/24 05:43:45;;;;;;;12.70;3.20;;;;;;;7.40;72.04;101049.50;5032624;28;20090;-71
2022/02/24 05:46:10;;;;;;;15.10;2.92;;;;;;;7.38;72.01;101048.84;5031394;28;20025;-71
2022/02/24 05:48:35;;;;;;;12.85;2.97;;;;;;;7.43;71.92;101051.75;5032345;28;20460;-71
2022/02/24 05:51:01;;;;;;;13.27;3.00;;;;;;;7.40;72.15;101044.34;5035009;28;20036;-71
2022/02/24 05:53:26;;;;;;;12.88;2.88;;;;;;;7.32;72.23;101049.47;5036185;28;20029;-71
2022/02/24 05:55:51;;;;;;;14.50;3.25;;;;;;;7.35;72.87;101035.50;5036019;28;20164;-70
2022/02/24 05:58:17;;;;;;;13.23;3.30;;;;;;;7.43;72.39;101043.22;5034919;28;20503;-71
2022/02/24 06:00:42;;;;;;;12.88;2.70;;;;;;;7.35;72.80;101030.34;5036101;28;20025;-71
2022/02/24 06:03:07;;;;;;;15.73;3.03;;;;;;;7.34;72.59;101033.91;5034759;28;20527;-71
2022/02/24 06:05:32;;;;;;;14.63;2.97;;;;;;;7.32;72.45;101036.63;5034593;28;20049;-70
2022/02/24 06:07:58;;;;;;;13.02;2.55;;;;;;;7.32;72.58;101021.19;5035991;28;20021;-70
2022/02/24 06:10:24;;;;;;;12.88;2.90;;;;;;;7.38;72.74;101019.75;5034591;28;20037;-71
2022/02/24 06:12:49;;;;;;;14.40;2.72;;;;;;;7.30;72.47;101012.03;5034538;28;20075;-71
2022/02/24 06:15:15;;;;;;;15.57;3.15;;;;;;;7.24;73.03;101018.63;5035835;28;20494;-71
2022/02/24 06:17:40;;;;;;;15.10;2.72;;;;;;;7.33;72.62;101012.50;5035761;28;20032;-71
2022/02/24 06:20:07;;;;;;;13.60;2.65;;;;;;;7.19;73.05;101013.13;5035808;28;20499;-71
2022/02/24 06:22:32;;;;;;;12.85;2.95;;;;;;;7.28;72.40;101009.63;5035807;28;20030;-71
2022/02/24 06:24:57;;;;;;;13.10;2.78;;;;;;;7.27;72.49;101005.44;5035697;28;20032;-71
2022/02/24 06:27:23;;;;;;;11.25;2.67;;;;;;;7.29;72.48;101013.81;5035587;28;20431;-71
2022/02/24 06:29:48;;;;;;;15.05;3.08;;;;;;;7.23;73.45;100999.03;5037370;28;20394;-72
2022/02/24 06:32:14;;;;;;;12.63;2.90;;;;;;;7.18;73.18;100999.47;5040475;28;20033;-74
2022/02/24 06:34:40;;;;;;;12.80;2.67;;;;;;;7.19;72.68;100977.97;5039680;28;20124;-71
2022/02/24 06:37:06;;;;;;;15.82;3.67;;;;;;;7.34;72.71;100995.34;5038105;28;20029;-72
2022/02/24 06:39:32;;;;;;;13.75;2.70;;;;;;;7.32;72.73;100997.25;5035627;28;20076;-70
2022/02/24 06:41:57;;;;;;;14.35;2.80;;;;;;;7.20;73.38;100995.00;5034250;28;20033;-70
2022/02/24 06:44:22;;;;;;;10.10;3.08;;;;;;;7.29;72.72;100985.53;5034717;28;20025;-72
2022/02/24 06:46:48;;;;;;;14.05;3.15;;;;;;;7.23;73.25;100973.31;5040209;28;20100;-72
2022/02/24 06:49:13;;;;;;;18.38;3.08;;;;;;;7.35;72.75;100979.75;5035830;28;20029;-71
2022/02/24 06:51:38;;;;;;;18.83;3.70;;;;;;;7.42;72.65;100977.31;5033749;28;20534;-72
2022/02/24 06:54:04;;;;;;;11.75;2.97;;;;;;;7.19;73.51;100972.84;5034502;28;20017;-73
2022/02/24 06:56:29;;;;;;;20.98;3.33;;;;;;;7.32;73.13;100976.69;5034299;28;20056;-72
2022/02/24 06:58:55;;;;;;;12.15;3.35;;;;;;;7.32;73.52;100964.63;5033879;28;20412;-72
2022/02/24 07:01:20;;;;;;;18.00;3.13;;;;;;;7.30;72.80;100952.91;5032688;28;20029;-72
2022/02/24 07:03:45;;;;;;;16.92;3.22;;;;;;;7.30;73.33;100951.13;5034895;28;20495;-72
2022/02/24 07:06:11;;;;;;;12.07;3.40;;;;;;;7.19;73.62;100954.84;5053387;28;20057;-72
2022/02/24 07:08:37;;;;;;;12.20;3.10;;;;;;;7.31;73.93;100954.50;5053262;28;20686;-72
2022/02/24 07:11:02;;;;;;;12.52;2.95;;;;;;;7.25;73.69;100958.53;5035048;28;20052;-71
2022/02/24 07:13:28;;;;;;;13.05;3.08;;;;;;;7.32;73.86;100958.69;5053297;28;20395;-73
2022/02/24 07:15:53;;;;;;;13.90;2.85;;;;;;;7.39;73.37;100951.94;5035444;28;20029;-72
2022/02/24 07:18:19;;;;;;;9.32;2.97;;;;;;;7.39;73.48;100947.63;5035462;28;20031;-71
2022/02/24 07:20:44;;;;;;;12.02;2.95;;;;;;;7.35;73.74;100942.94;5036161;28;20521;-71
2022/02/24 07:23:10;;;;;;;13.50;2.90;;;;;;;7.41;73.50;100926.88;5036574;28;20059;-71
2022/02/24 07:25:35;;;;;;;16.92;2.95;;;;;;;7.35;73.74;100920.59;5054563;28;20071;-71
2022/02/24 07:28:00;;;;;;;19.00;3.10;;;;;;;7.33;74.11;100924.31;5036734;28;20071;-70
2022/02/24 07:30:26;;;;;;;12.45;2.95;;;;;;;7.39;73.53;100921.06;5036575;28;20082;-71
2022/02/24 07:32:51;;;;;;;14.77;2.90;;;;;;;7.39;72.81;100924.47;5054267;28;20104;-72
2022/02/24 07:35:16;;;;;;;11.13;2.70;;;;;;;7.41;72.95;100907.09;5054270;28;20416;-71
2022/02/24 07:37:41;;;;;;;10.45;2.42;;;;;;;7.45;73.44;100913.53;5054152;28;20036;-71
2022/02/24 07:40:07;;;;;;;13.68;2.80;;;;;;;7.49;73.33;100913.22;5054079;28;20028;-71
2022/02/24 07:42:34;;;;;;;10.07;2.78;;;;;;;7.57;72.77;100906.28;5054109;28;20028;-71
2022/02/24 07:45:01;;;;;;;16.17;2.95;;;;;;;7.57;72.91;100908.84;5036085;28;20021;-72
2022/02/24 07:47:26;;;;;;;12.57;2.90;;;;;;;7.44;73.36;100909.34;5053902;28;20472;-72
2022/02/24 07:49:51;;;;;;;17.20;2.90;;;;;;;7.63;73.05;100908.19;5036173;28;20021;-70
2022/02/24 07:52:17;;;;;;;12.40;2.63;;;;;;;7.72;72.04;100911.56;5035879;28;20480;-71
2022/02/24 07:54:42;;;;;;;20.77;3.30;;;;;;;7.73;72.14;100910.56;5035748;28;20020;-71
2022/02/24 07:57:08;;;;;;;10.50;2.60;;;;;;;7.53;72.44;100878.47;5053734;28;20464;-71
2022/02/24 07:59:33;;;;;;;11.35;2.72;;;;;;;7.78;72.57;100885.16;5053744;28;20380;-72
2022/02/24 08:01:58;;;;;;;20.13;3.33;;;;;;;7.69;72.39;100873.31;5035905;28;20032;-71
2022/02/24 08:04:24;;;;;;;12.88;2.75;;;;;;;7.75;71.62;100884.69;5035816;28;20045;-71
2022/02/24 08:06:49;;;;;;;13.25;2.53;;;;;;;7.68;72.04;100889.69;5053865;28;20029;-71
2022/02/24 08:09:15;;;;;;;11.80;2.70;;;;;;;7.71;72.78;100873.94;5035704;28;20025;-71
2022/02/24 08:11:40;;;;;;;13.68;2.88;;;;;;;7.68;71.58;100874.25;5035388;28;20439;-71
2022/02/24 08:14:05;;;;;;;17.20;2.60;;;;;;;7.68;71.94;100866.53;5035876;28;20025;-71
2022/02/24 08:16:31;;;;;;;11.18;2.50;;;;;;;7.65;72.21;100872.84;5053445;28;20064;-71
2022/02/24 08:18:59;;;;;;;14.30;2.72;;;;;;;7.64;72.14;100855.78;5035454;28;20032;-71
2022/02/24 08:21:24;;;;;;;16.00;2.63;;;;;;;7.73;71.89;100863.47;5053367;28;20013;-71
2022/02/24 08:23:50;;;;;;;11.52;2.60;;;;;;;7.76;71.63;100851.06;5053472;28;20078;-72
2022/02/24 08:26:16;;;;;;;11.15;2.35;;;;;;;7.74;71.96;100850.47;5053260;28;20021;-72
2022/02/24 08:28:41;;;;;;;14.25;2.55;;;;;;;7.67;71.53;100842.59;5035342;28;20538;-71
2022/02/24 08:31:06;;;;;;;8.38;2.35;;;;;;;7.76;71.84;100827.13;5053473;28;20021;-72
2022/02/24 08:33:32;;;;;;;11.63;2.70;;;;;;;7.81;71.62;100832.56;5053104;28;20384;-71
2022/02/24 08:35:57;;;;;;;12.60;2.30;;;;;;;7.92;71.24;100847.66;5035223;28;20381;-71
2022/02/24 08:38:22;;;;;;;8.55;2.10;;;;;;;7.94;71.75;100843.16;5035243;28;20488;-71
2022/02/24 08:40:48;;;;;;;11.23;2.63;;;;;;;8.01;71.91;100831.19;5035316;28;20020;-72
2022/02/24 08:43:13;;;;;;;8.50;2.22;;;;;;;7.97;71.29;100819.66;5053026;28;20020;-72
2022/02/24 08:45:39;;;;;;;9.25;2.22;;;;;;;7.97;72.01;100816.25;5035227;28;20620;-72
2022/02/24 08:48:04;;;;;;;8.82;2.22;;;;;;;7.95;71.56;100813.84;5053011;28;20084;-72
2022/02/24 08:50:30;;;;;;;12.23;2.65;;;;;;;8.13;70.45;100816.97;5053012;28;20494;-72
2022/02/24 08:52:56;;;;;;;9.68;2.40;;;;;;;8.08;70.75;100819.25;5053031;28;20531;-72
2022/02/24 08:55:22;;;;;;;14.07;2.45;;;;;;;7.96;71.03;100814.66;5052919;28;20039;-72
2022/02/24 08:57:47;;;;;;;11.95;3.35;;;;;;;7.98;71.24;100810.94;5053153;28;20415;-72
2022/02/24 09:00:13;;;;;;;8.30;2.42;;;;;;;8.16;70.87;100799.59;5052899;28;20472;-71
2022/02/24 09:02:39;;;;;;;6.88;2.25;;;;;;;8.06;70.71;100803.19;5052816;28;20082;-72
2022/02/24 09:05:05;;;;;;;10.00;2.35;;;;;;;8.21;70.12;100797.31;5052643;28;20056;-72
2022/02/24 09:07:30;;;;;;;13.48;2.47;;;;;;;8.24;70.04;100805.47;5034957;28;20033;-73
2022/02/24 09:09:55;;;;;;;10.85;2.47;;;;;;;8.25;70.40;100786.47;5035100;28;20032;-72
2022/02/24 09:12:20;;;;;;;14.63;3.10;;;;;;;8.38;70.24;100787.72;5034929;28;20029;-72
2022/02/24 09:14:46;;;;;;;6.55;1.80;;;;;;;8.39;69.95;100763.56;5052793;28;20029;-74
2022/02/24 09:17:11;;;;;;;7.88;2.30;;;;;;;8.47;69.69;100746.28;5052777;28;20029;-72
2022/02/24 09:19:39;;;;;;;12.15;2.25;;;;;;;9.53;65.99;100756.50;5052928;28;20163;-72
2022/02/24 09:22:06;;;;;;;11.02;2.47;;;;;;;9.42;66.82;100744.84;5035428;28;20330;-73
2022/02/24 09:24:31;;;;;;;8.30;2.15;;;;;;;9.00;67.16;100736.75;5036386;28;20025;-73
2022/02/24 09:26:57;;;;;;;9.35;2.50;;;;;;;8.74;68.32;100741.53;5054568;28;20040;-72
2022/02/24 09:29:22;;;;;;;8.07;2.20;;;;;;;8.62;68.65;100727.50;5055245;28;20031;-73
2022/02/24 09:31:48;;;;;;;13.13;3.63;;;;;;;8.51;69.42;100716.63;5054286;28;20028;-72
2022/02/24 09:34:15;;;;;;;7.65;2.20;;;;;;;8.83;69.16;100712.13;5053715;28;20029;-72
2022/02/24 09:36:41;;;;;;;9.30;2.20;;;;;;;9.00;67.70;100703.25;5058575;28;20023;-72
2022/02/24 09:39:06;;;;;;;11.10;2.22;;;;;;;9.11;67.59;100699.44;5039890;28;20111;-73
2022/02/24 09:41:32;;;;;;;15.05;2.25;;;;;;;9.11;67.84;100693.47;5055108;28;20036;-71
2022/02/24 09:43:57;;;;;;;12.57;2.80;;;;;;;8.74;68.42;100671.97;5055465;28;20060;-72
2022/02/24 09:46:22;;;;;;;11.10;2.55;;;;;;;9.41;66.76;100666.69;5055440;28;20025;-74
2022/02/24 09:48:48;;;;;;;9.73;2.42;;;;;;;9.94;65.33;100663.81;5055203;28;20020;-72
2022/02/24 09:51:18;;;;;;;9.27;2.72;;;;;;;9.68;65.10;100647.09;5055388;28;20443;-73
2022/02/24 09:53:45;;;;;;;11.02;2.90;;;;;;;9.51;65.87;100653.47;5056227;28;20060;-73
2022/02/24 09:56:19;;;;;;;10.98;2.60;;;;;;;10.11;64.65;100654.81;5053725;28;20032;-73
2022/02/24 09:58:45;;;;;;;11.68;2.67;;;;;;;10.29;62.68;100669.09;5054124;28;20104;-74
2022/02/24 10:01:13;;;;;;;12.90;2.47;;;;;;;10.05;64.56;100641.88;5037542;28;20468;-72
2022/02/24 10:03:41;;;;;;;8.77;2.50;;;;;;;9.89;64.56;100633.38;5037843;28;20020;-71
2022/02/24 10:06:08;;;;;;;12.18;2.85;;;;;;;9.91;64.74;100622.88;5055679;28;20552;-72
2022/02/24 10:08:36;;;;;;;9.85;2.30;;;;;;;10.69;62.61;100620.25;5055779;28;20060;-72
2022/02/24 10:11:03;;;;;;;9.38;2.60;;;;;;;10.94;61.35;100620.56;5055028;28;20033;-72
2022/02/24 10:13:29;;;;;;;16.85;2.85;;;;;;;12.37;58.32;100623.72;5053946;28;20099;-73
2022/02/24 10:15:59;;;;;;;12.10;2.50;;;;;;;12.75;56.16;100610.09;5055195;28;20036;-71
2022/02/24 10:18:28;;;;;;;7.00;2.10;;;;;;;12.02;57.50;100608.44;5055703;28;20020;-72
2022/02/24 10:21:00;;;;;;;12.82;2.50;;;;;;;11.04;60.60;100605.47;5054721;28;20017;-72
2022/02/24 10:23:39;;;;;;;14.35;2.90;;;;;;;11.12;60.63;100596.75;5054835;28;20029;-72
2022/02/24 10:26:09;;;;;;;11.80;2.50;;;;;;;11.39;60.23;100592.44;5037013;28;20078;-73
2022/02/24 10:28:38;;;;;;;14.00;2.75;;;;;;;13.98;53.25;100578.59;5055592;28;20024;-72
2022/02/24 10:31:06;;;;;;;10.60;2.75;;;;;;;11.99;57.54;100570.00;5055393;28;20105;-72
2022/02/24 10:33:32;;;;;;;11.50;2.95;;;;;;;12.70;55.77;100565.84;5037549;28;20104;-74
2022/02/24 10:36:31;;;;;;;13.95;3.00;;;;;;;12.81;55.54;100567.78;5036215;28;20067;-73
2022/02/24 10:39:12;;;;;;;11.07;2.55;;;;;;;12.68;56.70;100560.06;5022321;28;20134;-72
2022/02/24 10:41:43;;;;;;;8.15;2.40;;;;;;;11.71;59.62;100563.22;5035757;28;20427;-72
2022/02/24 10:44:20;;;;;;;11.02;2.55;;;;;;;11.40;60.23;100561.22;5054908;28;20040;-71
2022/02/24 10:46:48;;;;;;;16.90;2.78;;;;;;;10.67;62.21;100547.28;5057983;28;20380;-74
2022/02/24 10:49:28;;;;;;;11.80;2.72;;;;;;;10.27;63.44;100552.25;5057657;28;20032;-74
2022/02/24 10:52:20;;;;;;;10.15;2.40;;;;;;;10.42;64.48;100550.38;5039568;28;20137;-72
2022/02/24 10:55:15;;;;;;;12.70;3.00;;;;;;;10.30;64.72;100537.19;5041699;28;20025;-72
2022/02/24 10:57:40;;;;;;;9.23;2.55;;;;;;;11.01;61.79;100523.13;5011174;28;20049;-71
2022/02/24 11:00:06;;;;;;;12.02;2.47;;;;;;;11.43;60.26;100508.28;5056486;28;20070;-72
2022/02/24 11:02:31;;;;;;;9.52;2.40;;;;;;;11.88;58.90;100516.22;5054229;28;20552;-71
2022/02/24 11:04:56;;;;;;;12.48;2.90;;;;;;;10.87;61.39;100503.41;5053142;28;20041;-72
2022/02/24 11:07:23;;;;;;;14.40;2.58;;;;;;;10.24;63.65;100496.59;5036535;28;20384;-71
2022/02/24 11:09:49;;;;;;;8.85;2.55;;;;;;;10.17;64.09;100498.34;5054811;28;20055;-71
2022/02/24 11:12:16;;;;;;;11.60;2.60;;;;;;;9.91;64.62;100499.78;5054856;28;20028;-72
2022/02/24 11:14:45;;;;;;;14.80;2.70;;;;;;;9.68;65.60;100491.50;5053689;28;20028;-72
2022/02/24 11:17:12;;;;;;;11.93;2.58;;;;;;;9.75;64.71;100489.75;5033695;28;20044;-72
2022/02/24 11:19:39;;;;;;;10.30;3.17;;;;;;;9.64;65.54;100488.50;5049994;28;20095;-71
2022/02/24 11:22:06;;;;;;;13.23;2.67;;;;;;;9.56;65.69;100474.94;5033420;28;20483;-72
2022/02/24 11:24:32;;;;;;;9.07;2.40;;;;;;;9.73;65.71;100478.84;5050717;28;20044;-72
2022/02/24 11:27:08;;;;;;;11.63;2.30;;;;;;;9.88;65.31;100482.09;5050345;28;20047;-73
2022/02/24 11:29:50;;;;;;;10.68;2.50;;;;;;;9.56;65.42;100474.94;5032158;28;20484;-73
2022/02/24 11:32:20;;;;;;;17.20;2.67;;;;;;;9.65;65.30;100458.31;5033273;28;20029;-71
2022/02/24 11:35:07;;;;;;;11.10;2.65;;;;;;;9.78;65.61;100460.19;5053486;28;20169;-71
2022/02/24 11:37:45;;;;;;;9.40;2.50;;;;;;;9.75;65.92;100445.09;5054272;28;20033;-72
2022/02/24 11:40:18;;;;;;;11.10;2.42;;;;;;;9.79;65.60;100439.38;5054172;28;20078;-71
2022/02/24 11:42:45;;;;;;;8.80;2.47;;;;;;;9.70;65.57;100419.88;5054214;28;20102;-72
2022/02/24 11:45:23;;;;;;;9.27;2.13;;;;;;;9.80;66.26;100419.50;5054257;28;20021;-71
2022/02/24 11:48:11;;;;;;;9.45;2.33;;;;;;;9.78;65.78;100409.41;5053602;28;20028;-72
2022/02/24 11:50:55;;;;;;;12.30;2.70;;;;;;;9.78;66.23;100408.56;5035894;28;20031;-72
2022/02/24 11:53:26;;;;;;;9.07;2.25;;;;;;;9.70;65.94;100414.69;5036148;28;20021;-71
2022/02/24 11:56:17;;;;;;;10.88;2.45;;;;;;;9.74;67.03;100404.78;5053816;28;20032;-72
2022/02/24 11:58:57;;;;;;;8.38;2.17;;;;;;;9.55;67.35;100396.75;5053947;28;20033;-72
2022/02/24 12:01:34;;;;;;;10.70;2.20;;;;;;;9.60;66.94;100378.91;5035746;28;20021;-71
2022/02/24 12:04:03;;;;;;;14.48;3.08;;;;;;;9.44;68.30;100379.22;5053839;28;20043;-71
2022/02/24 12:06:46;;;;;;;14.52;2.40;;;;;;;9.38;69.09;100370.47;5053831;28;20116;-71
2022/02/24 12:09:14;;;;;;;10.73;2.35;;;;;;;9.28;69.17;100364.81;5055482;28;20025;-72
2022/02/24 12:12:01;;;;;;;11.88;2.50;;;;;;;9.32;69.20;100370.41;5053580;28;20033;-71
2022/02/24 12:14:26;;;;;;;10.73;2.70;;;;;;;9.35;70.35;100364.84;5053888;28;20453;-71
2022/02/24 12:17:00;;;;;;;11.50;2.30;;;;;;;9.19;72.41;100368.53;5054307;28;20029;-71
2022/02/24 12:19:34;;;;;;;12.20;2.65;;;;;;;9.02;73.38;100360.28;5054109;28;20831;-72